Time;durP1;ratioP1;P1;durP2;ratioP2;P2;SDS_P1;SDS_P2;PMS_P1;PMS_P2;Temp;Humidity;BMP_temperature;BMP_pressure;BME280_temperature;BME280_humidity;BME280_pressure;Samples;Min_cycle;Max_cycle;Signal;HPM_P1;HPM_P2
2022/05/15 00:02:35;;;;;;;23.33;7.55;;;11.50;99.90;;;;;;5059994;28;20052;-53
2022/05/15 00:05:02;;;;;;;24.45;8.02;;;11.50;99.90;;;;;;5060162;28;20049;-53
2022/05/15 00:07:28;;;;;;;24.33;8.10;;;11.50;99.90;;;;;;5059693;28;20033;-55
2022/05/15 00:09:54;;;;;;;23.50;8.00;;;11.40;99.90;;;;;;5060274;28;20071;-53
2022/05/15 00:12:20;;;;;;;20.70;7.03;;;11.30;99.90;;;;;;5059078;28;20306;-53
2022/05/15 00:14:48;;;;;;;21.50;7.13;;;11.40;99.90;;;;;;5060437;28;20086;-52
2022/05/15 00:17:15;;;;;;;22.27;7.68;;;11.40;99.90;;;;;;5058964;28;20120;-53
2022/05/15 00:19:41;;;;;;;25.60;8.38;;;11.30;99.90;;;;;;5059898;28;20049;-54
2022/05/15 00:22:08;;;;;;;23.70;8.07;;;11.30;99.90;;;;;;5059995;28;20033;-53
2022/05/15 00:24:37;;;;;;;23.73;7.95;;;11.30;99.90;;;;;;5041409;28;20056;-53
2022/05/15 00:27:03;;;;;;;23.63;8.32;;;11.30;99.90;;;;;;5059873;28;20105;-51
2022/05/15 00:29:30;;;;;;;27.27;8.10;;;11.30;99.90;;;;;;5058618;28;20080;-53
2022/05/15 00:31:56;;;;;;;24.60;8.30;;;11.20;99.90;;;;;;5042077;28;20045;-53
2022/05/15 00:34:22;;;;;;;23.42;8.70;;;11.30;99.90;;;;;;5057947;28;20106;-53
2022/05/15 00:36:47;;;;;;;24.10;8.02;;;11.20;99.90;;;;;;5059677;28;20049;-53
2022/05/15 00:39:13;;;;;;;21.20;7.65;;;11.20;99.90;;;;;;5059231;28;20044;-52
2022/05/15 00:41:40;;;;;;;23.48;8.45;;;11.20;99.90;;;;;;5059135;28;20166;-53
2022/05/15 00:44:07;;;;;;;22.02;8.05;;;11.20;99.90;;;;;;5059543;28;20045;-53
2022/05/15 00:46:39;;;;;;;22.02;7.80;;;11.10;99.90;;;;;;5058329;28;20116;-53
2022/05/15 00:49:11;;;;;;;24.10;8.07;;;11.10;99.90;;;;;;5059644;28;20048;-53
2022/05/15 00:51:58;;;;;;;18.92;6.93;;;11.10;99.90;;;;;;5058322;28;20052;-53
2022/05/15 00:54:35;;;;;;;25.05;8.73;;;11.10;99.90;;;;;;5058887;28;20045;-53
2022/05/15 00:57:26;;;;;;;26.40;7.95;;;11.00;99.90;;;;;;5059330;28;20503;-52
2022/05/15 01:00:00;;;;;;;24.77;8.18;;;11.00;99.90;;;;;;5058217;28;20044;-53
2022/05/15 01:02:31;;;;;;;21.27;8.05;;;11.00;99.90;;;;;;5059052;28;20052;-53
2022/05/15 01:04:57;;;;;;;20.33;7.50;;;11.00;99.90;;;;;;5058843;28;20085;-53
2022/05/15 01:07:22;;;;;;;24.83;7.90;;;10.90;99.90;;;;;;5058152;28;20047;-53
2022/05/15 01:09:50;;;;;;;20.30;7.47;;;10.90;99.90;;;;;;5059031;28;20045;-53
2022/05/15 01:12:16;;;;;;;23.27;7.72;;;10.90;99.90;;;;;;5039831;28;20052;-54
2022/05/15 01:14:45;;;;;;;21.40;7.60;;;10.90;99.90;;;;;;5059105;28;20525;-52
2022/05/15 01:17:11;;;;;;;23.85;7.03;;;10.90;99.90;;;;;;5057696;28;20037;-52
2022/05/15 01:19:39;;;;;;;25.92;8.15;;;10.80;99.90;;;;;;5058838;28;20094;-53
2022/05/15 01:22:08;;;;;;;26.67;8.02;;;10.80;99.90;;;;;;5058692;28;20060;-52
2022/05/15 01:24:35;;;;;;;22.08;7.35;;;10.80;99.90;;;;;;5058332;28;20061;-53
2022/05/15 01:27:04;;;;;;;22.70;7.10;;;10.70;99.90;;;;;;5058803;28;20067;-53
2022/05/15 01:29:33;;;;;;;19.13;6.55;;;10.70;99.90;;;;;;5057564;28;20041;-53
2022/05/15 01:31:59;;;;;;;20.77;6.93;;;10.70;99.90;;;;;;5058901;28;20039;-52
2022/05/15 01:34:26;;;;;;;18.17;7.47;;;10.70;99.90;;;;;;5057330;28;20096;-53
2022/05/15 01:36:52;;;;;;;18.23;6.70;;;10.70;99.90;;;;;;5058245;28;20041;-58
2022/05/15 01:39:18;;;;;;;19.77;6.90;;;10.70;99.90;;;;;;5058141;28;20515;-52
2022/05/15 01:41:43;;;;;;;17.48;7.75;;;10.70;99.90;;;;;;5057779;28;20044;-53
2022/05/15 01:44:10;;;;;;;21.42;6.10;;;10.60;99.90;;;;;;5058377;28;20065;-52
2022/05/15 01:46:36;;;;;;;16.80;6.63;;;10.60;99.90;;;;;;5057409;28;20049;-53
2022/05/15 01:49:06;;;;;;;16.73;6.30;;;10.60;99.90;;;;;;5058424;28;20045;-52
2022/05/15 01:51:33;;;;;;;20.52;6.30;;;10.50;99.90;;;;;;5057435;28;20098;-52
2022/05/15 01:54:00;;;;;;;18.55;6.15;;;10.50;99.90;;;;;;5058156;28;20049;-51
2022/05/15 01:56:26;;;;;;;16.08;6.28;;;10.50;99.90;;;;;;5057945;28;20037;-53
2022/05/15 01:58:52;;;;;;;15.68;5.85;;;10.50;99.90;;;;;;5057777;28;20043;-53
2022/05/15 02:01:17;;;;;;;16.83;5.22;;;10.50;99.90;;;;;;5058352;28;20071;-53
2022/05/15 02:03:43;;;;;;;15.88;5.38;;;10.40;99.90;;;;;;5056987;28;20044;-54
2022/05/15 02:06:09;;;;;;;14.85;5.68;;;10.40;99.90;;;;;;5058622;28;20120;-52
2022/05/15 02:08:36;;;;;;;14.40;5.05;;;10.40;99.90;;;;;;5057099;28;20041;-53
2022/05/15 02:11:02;;;;;;;16.67;5.43;;;10.40;99.90;;;;;;5057810;28;20051;-53
2022/05/15 02:13:28;;;;;;;13.63;4.78;;;10.30;99.90;;;;;;5058029;28;20059;-53
2022/05/15 02:15:54;;;;;;;15.25;4.82;;;10.30;99.90;;;;;;5057655;28;20045;-52
2022/05/15 02:18:20;;;;;;;16.13;5.88;;;10.30;99.90;;;;;;5057805;28;20428;-54
2022/05/15 02:20:45;;;;;;;16.80;5.88;;;10.30;99.90;;;;;;5057103;28;20047;-54
2022/05/15 02:23:11;;;;;;;16.08;5.70;;;10.30;99.90;;;;;;5040472;28;20052;-53
2022/05/15 02:25:39;;;;;;;19.05;5.55;;;10.30;99.90;;;;;;5039214;28;20071;-54
2022/05/15 02:28:05;;;;;;;14.10;5.22;;;10.30;99.90;;;;;;5058238;28;20053;-53
2022/05/15 02:30:30;;;;;;;17.08;5.10;;;10.20;99.90;;;;;;5057468;28;20048;-54
2022/05/15 02:32:56;;;;;;;16.30;5.22;;;10.20;99.90;;;;;;5057429;28;20116;-54
2022/05/15 02:35:22;;;;;;;11.82;4.80;;;10.20;99.90;;;;;;5058080;28;20048;-53
2022/05/15 02:37:48;;;;;;;10.65;4.68;;;10.10;99.90;;;;;;5057003;28;20413;-54
2022/05/15 02:40:18;;;;;;;16.17;5.45;;;10.00;99.90;;;;;;5058163;28;20056;-54
2022/05/15 02:42:44;;;;;;;15.65;5.35;;;10.00;99.90;;;;;;5056645;28;20483;-54
2022/05/15 02:45:12;;;;;;;14.63;5.45;;;9.90;99.90;;;;;;5057343;28;20068;-54
2022/05/15 02:47:38;;;;;;;13.43;4.93;;;9.90;99.90;;;;;;5057072;28;20048;-53
2022/05/15 02:52:49;;;;;;;11.98;5.18;;;9.80;99.90;;;;;;5057752;28;20051;-54
2022/05/15 02:55:15;;;;;;;12.80;5.25;;;9.80;99.90;;;;;;5056460;28;20073;-54
2022/05/15 02:57:41;;;;;;;15.48;5.70;;;9.90;99.90;;;;;;5058379;28;20105;-54
2022/05/15 03:00:10;;;;;;;19.58;6.85;;;9.80;99.90;;;;;;5060674;28;20049;-52
2022/05/15 03:02:40;;;;;;;16.15;5.22;;;9.70;99.90;;;;;;5061156;28;20037;-51
2022/05/15 03:05:07;;;;;;;15.55;6.10;;;9.70;99.90;;;;;;5061364;28;20072;-52
2022/05/15 03:07:35;;;;;;;11.80;5.20;;;9.80;99.90;;;;;;5042785;28;20056;-53
2022/05/15 03:10:01;;;;;;;15.60;6.22;;;9.80;99.90;;;;;;5061274;28;20361;-54
2022/05/15 03:12:26;;;;;;;19.63;6.20;;;9.80;99.90;;;;;;5060056;28;20056;-53
2022/05/15 03:14:52;;;;;;;18.70;5.80;;;9.80;99.90;;;;;;5061630;28;20037;-52
2022/05/15 03:17:18;;;;;;;15.77;5.97;;;9.80;99.90;;;;;;5060175;28;20045;-53
2022/05/15 03:19:44;;;;;;;17.95;6.13;;;9.80;99.90;;;;;;5060909;28;20071;-53
2022/05/15 03:22:10;;;;;;;17.75;6.28;;;9.70;99.90;;;;;;5060916;28;20750;-53
2022/05/15 03:24:36;;;;;;;16.73;6.38;;;9.80;99.90;;;;;;5042602;28;20078;-53
2022/05/15 03:27:01;;;;;;;17.05;6.22;;;9.80;99.90;;;;;;5061079;28;20074;-52
2022/05/15 03:29:28;;;;;;;15.32;5.50;;;9.70;99.90;;;;;;5059655;28;20045;-52
2022/05/15 03:31:54;;;;;;;18.95;6.88;;;9.70;99.90;;;;;;5061193;28;20033;-52
2022/05/15 03:34:20;;;;;;;14.75;5.43;;;9.70;99.90;;;;;;5059958;28;20052;-53
2022/05/15 03:36:47;;;;;;;12.27;4.40;;;9.60;99.90;;;;;;5060537;28;20045;-49
2022/05/15 03:39:14;;;;;;;12.88;4.13;;;9.50;99.90;;;;;;5060378;28;20052;-54
2022/05/15 03:41:41;;;;;;;10.60;4.00;;;9.50;99.90;;;;;;5060196;28;20053;-54
2022/05/15 03:44:08;;;;;;;11.38;3.97;;;9.50;99.90;;;;;;5042777;28;20069;-51
2022/05/15 03:46:34;;;;;;;8.38;3.72;;;9.50;99.90;;;;;;5059645;28;20052;-54
2022/05/15 03:49:00;;;;;;;9.95;4.22;;;9.40;99.90;;;;;;5060844;28;20052;-53
2022/05/15 03:51:26;;;;;;;12.95;3.33;;;9.40;99.90;;;;;;5059715;28;20127;-52
2022/05/15 03:53:52;;;;;;;6.70;2.58;;;9.50;99.90;;;;;;5060409;28;20143;-53
2022/05/15 03:56:49;;;;;;;8.40;3.08;;;9.30;99.90;;;;;;5060081;28;20041;-53
2022/05/15 03:59:04;;;;;;;8.63;4.00;;;9.30;99.90;;;;;;5059560;28;20045;-53
2022/05/15 04:01:29;;;;;;;9.20;3.10;;;9.40;99.90;;;;;;5060455;28;20053;-53
2022/05/15 04:03:55;;;;;;;11.13;3.53;;;9.30;99.90;;;;;;5059277;28;20041;-54
2022/05/15 04:06:21;;;;;;;13.63;3.90;;;9.30;99.90;;;;;;5060571;28;20615;-54
2022/05/15 04:08:46;;;;;;;8.05;2.92;;;9.40;99.90;;;;;;5059046;28;20044;-53
2022/05/15 04:11:12;;;;;;;7.53;2.53;;;9.30;99.90;;;;;;5059183;28;20044;-53
2022/05/15 04:13:38;;;;;;;10.70;3.65;;;9.30;99.90;;;;;;5060227;28;20045;-53
2022/05/15 04:16:04;;;;;;;12.48;4.25;;;9.40;99.90;;;;;;5059222;28;20040;-54
2022/05/15 04:18:29;;;;;;;10.93;3.58;;;9.40;99.90;;;;;;5059906;28;20041;-54
2022/05/15 04:20:55;;;;;;;14.63;4.10;;;9.40;99.90;;;;;;5058840;28;20101;-54
2022/05/15 04:23:20;;;;;;;11.40;3.60;;;9.50;99.90;;;;;;5060365;28;20119;-53
2022/05/15 04:25:46;;;;;;;11.95;3.63;;;9.50;99.90;;;;;;5059015;28;20128;-53
2022/05/15 04:28:12;;;;;;;13.15;3.63;;;9.50;99.90;;;;;;5059789;28;20095;-53
2022/05/15 04:30:37;;;;;;;10.35;4.03;;;9.60;99.90;;;;;;5059462;28;20041;-52
2022/05/15 04:33:03;;;;;;;9.50;3.45;;;9.60;99.90;;;;;;5059162;28;20041;-53
2022/05/15 04:35:30;;;;;;;9.50;3.50;;;9.60;99.90;;;;;;5059738;28;20056;-52
2022/05/15 04:37:56;;;;;;;9.70;2.97;;;9.70;99.90;;;;;;5058763;28;20052;-53
2022/05/15 04:40:22;;;;;;;11.00;3.40;;;9.70;99.90;;;;;;5059943;28;20041;-52
2022/05/15 04:42:47;;;;;;;9.40;3.35;;;9.70;99.90;;;;;;5058370;28;20110;-52
2022/05/15 04:45:13;;;;;;;10.93;3.80;;;9.70;99.90;;;;;;5059194;28;20084;-49
2022/05/15 04:47:39;;;;;;;9.18;3.22;;;9.80;99.90;;;;;;5059048;28;20048;-52
2022/05/15 04:50:05;;;;;;;13.82;3.53;;;9.80;99.90;;;;;;5058747;28;20055;-52
2022/05/15 04:52:31;;;;;;;12.57;3.70;;;9.90;99.90;;;;;;5059183;28;20489;-51
2022/05/15 04:54:56;;;;;;;14.23;4.03;;;9.90;99.90;;;;;;5058546;28;20059;-52
2022/05/15 04:57:22;;;;;;;11.35;4.03;;;10.00;99.90;;;;;;5041631;28;20044;-52
2022/05/15 04:59:50;;;;;;;13.57;3.90;;;10.10;99.90;;;;;;5058253;28;20144;-52
2022/05/15 05:02:16;;;;;;;13.40;3.92;;;10.20;99.90;;;;;;5059293;28;20075;-52
2022/05/15 05:04:41;;;;;;;14.43;4.80;;;10.20;99.90;;;;;;5058712;28;20045;-52
2022/05/15 05:07:08;;;;;;;11.07;4.00;;;10.30;99.90;;;;;;5058555;28;20041;-52
2022/05/15 05:09:34;;;;;;;14.57;4.57;;;10.40;99.90;;;;;;5058879;28;20045;-50
2022/05/15 05:12:00;;;;;;;18.33;5.45;;;10.40;99.90;;;;;;5040445;28;20037;-52
2022/05/15 05:14:26;;;;;;;14.60;4.53;;;10.50;99.90;;;;;;5059247;28;20049;-50
2022/05/15 05:16:52;;;;;;;15.10;4.90;;;10.60;99.90;;;;;;5057825;28;20049;-53
2022/05/15 05:19:17;;;;;;;15.82;6.53;;;10.60;99.90;;;;;;5058659;28;20091;-53
2022/05/15 05:21:43;;;;;;;16.83;5.90;;;10.80;99.90;;;;;;5057708;28;20096;-51
2022/05/15 05:24:08;;;;;;;21.67;6.03;;;10.90;99.90;;;;;;5058367;28;20048;-51
2022/05/15 05:26:34;;;;;;;22.58;6.60;;;11.00;99.90;;;;;;5058574;28;20056;-52
2022/05/15 05:29:00;;;;;;;27.50;6.90;;;11.20;99.90;;;;;;5039932;28;20044;-53
2022/05/15 05:31:26;;;;;;;22.30;7.22;;;11.20;99.90;;;;;;5058625;28;20127;-52
2022/05/15 05:33:51;;;;;;;19.83;6.10;;;11.30;99.90;;;;;;5057358;28;20037;-52
2022/05/15 05:36:17;;;;;;;23.63;6.70;;;11.40;99.90;;;;;;5040792;28;20075;-53
2022/05/15 05:38:45;;;;;;;23.65;6.63;;;11.60;99.90;;;;;;5057552;28;20048;-53
2022/05/15 05:41:11;;;;;;;19.58;6.45;;;11.70;99.90;;;;;;5058265;28;20080;-54
2022/05/15 05:43:37;;;;;;;24.42;8.35;;;11.70;99.90;;;;;;5058336;28;20045;-53
2022/05/15 05:46:02;;;;;;;19.55;7.38;;;11.80;99.90;;;;;;5039882;28;20481;-54
2022/05/15 05:48:29;;;;;;;19.48;5.82;;;11.90;99.90;;;;;;5058239;28;20045;-53
2022/05/15 05:50:55;;;;;;;21.90;5.70;;;12.00;99.90;;;;;;5057234;28;20081;-53
2022/05/15 05:53:20;;;;;;;23.27;5.60;;;12.00;99.90;;;;;;5040874;28;20052;-51
2022/05/15 05:55:46;;;;;;;22.92;6.60;;;12.20;99.90;;;;;;5057564;28;20135;-53
2022/05/15 05:58:12;;;;;;;24.27;5.93;;;12.20;99.90;;;;;;5058136;28;20113;-53
2022/05/15 06:00:38;;;;;;;19.35;6.00;;;12.30;99.90;;;;;;5058002;28;20045;-50
2022/05/15 06:05:50;;;;;;;18.48;5.05;;;12.50;99.90;;;;;;5058520;28;20056;-53
2022/05/15 06:08:17;;;;;;;19.80;6.03;;;12.60;99.90;;;;;;5039175;28;20049;-52
2022/05/15 06:10:43;;;;;;;23.67;5.85;;;12.70;99.90;;;;;;5040103;28;20068;-53
2022/05/15 06:13:09;;;;;;;20.33;6.07;;;12.80;99.90;;;;;;5057667;28;20040;-52
2022/05/15 06:15:35;;;;;;;20.75;7.10;;;12.90;99.90;;;;;;5057687;28;20033;-49
2022/05/15 06:18:04;;;;;;;23.88;5.68;;;12.90;99.90;;;;;;5058094;28;20045;-53
2022/05/15 06:20:30;;;;;;;20.13;5.60;;;13.00;99.90;;;;;;5057397;28;20027;-53
2022/05/15 06:22:56;;;;;;;17.17;5.28;;;13.10;99.90;;;;;;5040135;28;20117;-52
2022/05/15 06:25:22;;;;;;;18.42;6.00;;;13.20;99.90;;;;;;5057048;28;20033;-53
2022/05/15 06:27:48;;;;;;;18.60;5.57;;;13.30;99.90;;;;;;5058262;28;20037;-53
2022/05/15 06:30:15;;;;;;;21.88;5.82;;;13.40;99.90;;;;;;5057204;28;20106;-53
2022/05/15 06:32:41;;;;;;;21.88;6.93;;;13.40;99.90;;;;;;5058316;28;20053;-53
2022/05/15 06:35:08;;;;;;;26.85;5.65;;;13.50;99.90;;;;;;5062086;28;20109;-52
2022/05/15 06:37:34;;;;;;;24.95;6.35;;;13.50;99.90;;;;;;5061431;28;20049;-53
2022/05/15 06:39:59;;;;;;;22.05;7.18;;;13.60;99.90;;;;;;5062142;28;20041;-52
2022/05/15 06:42:28;;;;;;;22.58;5.60;;;13.60;99.90;;;;;;5060873;28;20045;-53
2022/05/15 06:44:54;;;;;;;21.30;6.38;;;13.70;99.90;;;;;;5061585;28;20076;-53
2022/05/15 06:47:21;;;;;;;17.42;5.72;;;13.90;99.90;;;;;;5060790;28;20049;-53
2022/05/15 06:49:46;;;;;;;17.63;5.97;;;14.00;99.90;;;;;;5061321;28;20041;-53
2022/05/15 06:52:12;;;;;;;21.65;6.40;;;14.10;99.90;;;;;;5061477;28;20519;-52
2022/05/15 06:54:38;;;;;;;24.92;5.43;;;14.10;99.90;;;;;;5061042;28;20049;-54
2022/05/15 06:59:49;;;;;;;17.77;5.25;;;14.30;99.90;;;;;;5060617;28;20092;-52
2022/05/15 07:02:15;;;;;;;25.15;6.32;;;14.50;99.90;;;;;;5061431;28;20041;-51
2022/05/15 07:04:40;;;;;;;20.48;5.35;;;14.60;99.90;;;;;;5043307;28;20053;-51
2022/05/15 07:07:06;;;;;;;20.67;5.60;;;14.60;99.90;;;;;;5061116;28;20107;-52
2022/05/15 07:09:32;;;;;;;19.30;5.03;;;14.60;99.90;;;;;;5061455;28;20033;-52
2022/05/15 07:11:58;;;;;;;19.15;5.68;;;14.80;99.90;;;;;;5060403;28;20053;-54
2022/05/15 07:14:23;;;;;;;26.20;6.90;;;14.80;99.90;;;;;;5061586;28;20045;-53
2022/05/15 07:16:49;;;;;;;26.55;7.07;;;15.00;99.90;;;;;;5060250;28;20037;-54
2022/05/15 07:19:15;;;;;;;21.63;5.30;;;15.00;99.90;;;;;;5061290;28;20048;-52
2022/05/15 07:21:41;;;;;;;22.95;4.88;;;15.00;99.90;;;;;;5059691;28;20060;-49
2022/05/15 07:24:07;;;;;;;20.02;4.95;;;15.10;99.90;;;;;;5039846;28;20049;-53
2022/05/15 07:26:34;;;;;;;19.48;6.05;;;15.20;99.90;;;;;;5057635;28;20041;-53
2022/05/15 07:28:59;;;;;;;21.17;5.10;;;15.20;99.90;;;;;;5057242;28;20098;-54
2022/05/15 07:31:25;;;;;;;22.38;5.35;;;15.20;99.90;;;;;;5057836;28;20049;-51
2022/05/15 07:33:51;;;;;;;20.85;5.03;;;15.20;99.90;;;;;;5038229;28;20049;-53
2022/05/15 07:36:17;;;;;;;22.00;5.00;;;15.40;99.90;;;;;;5057884;28;20045;-53
2022/05/15 07:38:43;;;;;;;22.27;4.72;;;15.50;99.90;;;;;;5056821;28;20052;-53
2022/05/15 07:41:09;;;;;;;19.27;5.15;;;15.60;99.90;;;;;;5022705;28;20171;-53
2022/05/15 07:43:35;;;;;;;20.35;4.85;;;15.70;99.90;;;;;;5039349;28;20440;-54
2022/05/15 07:46:01;;;;;;;25.73;5.30;;;15.90;99.90;;;;;;5056436;28;20059;-53
2022/05/15 07:48:27;;;;;;;20.40;4.50;;;15.90;99.90;;;;;;5057280;28;20063;-53
2022/05/15 07:50:56;;;;;;;23.13;5.40;;;15.90;99.90;;;;;;5056170;28;20045;-52
2022/05/15 07:53:21;;;;;;;25.98;5.60;;;15.90;99.90;;;;;;5056546;28;20071;-50
2022/05/15 07:55:47;;;;;;;19.85;5.15;;;16.00;99.90;;;;;;5055746;28;20100;-52
2022/05/15 07:58:13;;;;;;;15.77;5.35;;;16.00;99.90;;;;;;5056306;28;20049;-53
2022/05/15 08:00:38;;;;;;;16.20;4.13;;;16.00;99.90;;;;;;5056755;28;20048;-53
2022/05/15 08:03:10;;;;;;;18.30;4.57;;;16.00;99.90;;;;;;5055693;28;20506;-53
2022/05/15 08:08:22;;;;;;;19.23;4.38;;;16.30;99.90;;;;;;5053197;28;20363;-53
2022/05/15 08:10:49;;;;;;;20.58;5.30;;;16.40;99.90;;;;;;5056233;28;20061;-54
2022/05/15 08:13:17;;;;;;;20.75;4.57;;;16.30;99.90;;;;;;5055308;28;20105;-53
2022/05/15 08:15:43;;;;;;;20.23;4.65;;;16.50;99.90;;;;;;5055665;28;20068;-53
2022/05/15 08:23:58;;;;;;;18.83;5.53;;;16.70;99.90;;;;;;5056574;28;20128;-51
2022/05/15 08:26:24;;;;;;;21.50;4.30;;;16.80;99.90;;;;;;5056395;28;20483;-53
2022/05/15 08:28:50;;;;;;;17.63;4.50;;;16.90;99.90;;;;;;5056040;28;20059;-52
2022/05/15 08:31:18;;;;;;;18.08;4.63;;;16.80;99.90;;;;;;5056744;28;20056;-54
2022/05/15 08:33:44;;;;;;;14.82;4.00;;;16.90;99.90;;;;;;5055418;28;20040;-53
2022/05/15 08:36:10;;;;;;;15.05;4.13;;;16.90;99.90;;;;;;5056929;28;20044;-54
2022/05/15 08:38:37;;;;;;;16.73;4.00;;;17.00;99.90;;;;;;5055328;28;20091;-53
2022/05/15 08:41:31;;;;;;;17.13;4.63;;;17.10;99.90;;;;;;5056182;28;20088;-57
2022/05/15 08:44:18;;;;;;;19.27;3.83;;;17.10;99.90;;;;;;5056307;28;20053;-52
2022/05/15 08:47:09;;;;;;;17.23;4.32;;;17.20;99.90;;;;;;5055223;28;20052;-55
2022/05/15 08:49:42;;;;;;;15.73;3.97;;;17.30;99.90;;;;;;5055768;28;20057;-52
2022/05/15 08:52:24;;;;;;;14.73;4.15;;;17.40;99.90;;;;;;5071368;28;20130;-54
2022/05/15 08:55:14;;;;;;;15.95;4.18;;;17.30;99.90;;;;;;5055263;28;20128;-54
2022/05/15 08:57:55;;;;;;;17.42;4.05;;;17.50;99.90;;;;;;5036250;28;20105;-53
2022/05/15 09:00:36;;;;;;;18.45;3.85;;;17.60;99.90;;;;;;5035527;28;20096;-53
2022/05/15 09:03:24;;;;;;;18.15;3.78;;;17.70;99.90;;;;;;5017778;28;20079;-53
2022/05/15 09:06:04;;;;;;;16.33;4.13;;;17.70;99.90;;;;;;5036206;28;20069;-53
2022/05/15 09:09:07;;;;;;;17.63;4.40;;;17.90;99.90;;;;;;5034783;28;20052;-53
2022/05/15 09:11:46;;;;;;;15.38;4.15;;;17.90;99.90;;;;;;5048247;28;20037;-53
2022/05/15 09:14:15;;;;;;;13.70;4.13;;;17.90;99.90;;;;;;5037896;28;20048;-53
2022/05/15 09:16:55;;;;;;;14.80;3.75;;;18.20;99.90;;;;;;5054489;28;20053;-53
2022/05/15 09:19:21;;;;;;;13.15;3.60;;;18.10;99.90;;;;;;5055568;28;20053;-53
2022/05/15 09:21:47;;;;;;;15.40;3.85;;;18.20;99.90;;;;;;5055177;28;20401;-53
2022/05/15 09:24:39;;;;;;;17.17;3.72;;;18.30;99.90;;;;;;5055114;28;20068;-53
2022/05/15 09:27:12;;;;;;;;;;;18.40;99.90;;;;;;5053543;28;20064;-54
2022/05/15 09:29:38;;;;;;;13.07;3.50;;;18.30;99.90;;;;;;5054255;28;19932;-53
2022/05/15 09:32:06;;;;;;;17.33;4.25;;;18.50;99.90;;;;;;5055328;28;20040;-55
2022/05/15 09:34:34;;;;;;;12.55;4.63;;;18.60;99.90;;;;;;5055000;28;20052;-53
2022/05/15 09:39:49;;;;;;;13.18;3.00;;;18.60;99.90;;;;;;5055489;28;20218;-54
2022/05/15 09:45:25;;;;;;;10.60;3.00;;;18.80;99.90;;;;;;5055022;28;20064;-55
2022/05/15 09:47:51;;;;;;;21.65;4.10;;;18.80;99.90;;;;;;5054886;28;20052;-55
2022/05/15 09:50:40;;;;;;;15.05;3.60;;;18.80;99.90;;;;;;5035954;28;20179;-54
2022/05/15 09:53:10;;;;;;;14.07;3.45;;;18.80;99.90;;;;;;5055383;28;20044;-55
2022/05/15 09:55:36;;;;;;;13.63;3.40;;;18.90;99.90;;;;;;5054284;28;20040;-54
2022/05/15 09:58:05;;;;;;;11.90;3.55;;;18.80;99.90;;;;;;5054826;28;20088;-54
2022/05/15 10:00:34;;;;;;;14.32;3.85;;;18.80;99.90;;;;;;5054576;28;20180;-53
2022/05/15 10:03:15;;;;;;;15.52;3.55;;;18.90;99.90;;;;;;5054179;28;20045;-53
2022/05/15 10:05:41;;;;;;;11.88;3.20;;;19.00;99.90;;;;;;5037077;28;20080;-55
2022/05/15 10:08:26;;;;;;;11.45;3.00;;;19.00;99.90;;;;;;5053033;28;20763;-53
2022/05/15 10:11:04;;;;;;;12.43;2.90;;;19.00;99.90;;;;;;5054596;28;20175;-54
2022/05/15 10:13:36;;;;;;;16.52;4.07;;;19.10;99.90;;;;;;5054636;28;20719;-53
2022/05/15 10:16:08;;;;;;;13.05;3.90;;;19.20;99.90;;;;;;5054197;28;20063;-55
2022/05/15 10:19:01;;;;;;;15.13;3.67;;;19.30;99.90;;;;;;5055024;28;20041;-55
2022/05/15 10:21:47;;;;;;;15.15;3.72;;;19.40;99.90;;;;;;5054160;28;20037;-54
2022/05/15 10:24:18;;;;;;;16.48;3.28;;;19.50;99.90;;;;;;5054355;28;20172;-54
2022/05/15 10:26:47;;;;;;;13.77;3.25;;;19.60;99.90;;;;;;5054417;28;20551;-54
2022/05/15 10:29:29;;;;;;;11.95;2.80;;;19.70;99.90;;;;;;5033794;28;20064;-54
2022/05/15 10:31:59;;;;;;;12.57;3.58;;;19.50;99.90;;;;;;5035076;28;20096;-54
2022/05/15 10:34:29;;;;;;;13.82;3.25;;;19.70;99.90;;;;;;5034156;28;20080;-55
2022/05/15 10:37:08;;;;;;;12.45;3.60;;;19.60;99.90;;;;;;5034471;28;20622;-55
2022/05/15 10:39:55;;;;;;;12.68;3.45;;;19.80;99.90;;;;;;5034895;28;20046;-53
2022/05/15 10:42:43;;;;;;;11.63;3.10;;;19.80;99.90;;;;;;5033631;28;20071;-55
2022/05/15 10:45:30;;;;;;;14.07;3.33;;;19.70;99.90;;;;;;5034431;28;20455;-54
2022/05/15 10:48:03;;;;;;;13.23;3.50;;;19.80;99.90;;;;;;5034574;28;20068;-54
2022/05/15 10:50:44;;;;;;;10.57;3.20;;;19.80;99.90;;;;;;5033639;28;20057;-55
2022/05/15 10:59:43;;;;;;;12.70;2.75;;;20.20;99.90;;;;;;5053258;28;20104;-55
2022/05/15 11:02:40;;;;;;;11.52;2.60;;;20.30;99.90;;;;;;5043710;28;20071;-55
2022/05/15 11:05:21;;;;;;;11.05;2.70;;;20.40;99.90;;;;;;5054668;28;20044;-54
2022/05/15 11:07:54;;;;;;;12.73;2.78;;;20.30;99.60;;;;;;5053526;28;20040;-54
2022/05/15 11:10:38;;;;;;;11.23;2.70;;;20.20;99.90;;;;;;5054347;28;20037;-54
2022/05/15 11:13:12;;;;;;;13.10;3.15;;;20.30;99.90;;;;;;5054001;28;20056;-56
2022/05/15 11:15:44;;;;;;;10.40;2.95;;;20.30;99.90;;;;;;5053731;28;20497;-54
2022/05/15 11:18:28;;;;;;;13.98;3.47;;;20.40;99.90;;;;;;5054148;28;20057;-54
2022/05/15 11:21:01;;;;;;;10.32;3.08;;;20.50;99.60;;;;;;5056820;28;20060;-54
2022/05/15 11:23:54;;;;;;;9.23;2.70;;;20.60;99.80;;;;;;5057775;28;20064;-55
2022/05/15 11:26:32;;;;;;;13.90;3.28;;;20.40;99.90;;;;;;5057268;28;20056;-53
2022/05/15 11:29:05;;;;;;;12.75;3.25;;;20.50;99.90;;;;;;5056867;28;20520;-55
2022/05/15 11:31:35;;;;;;;12.88;3.28;;;20.60;99.70;;;;;;5057274;28;20048;-53
2022/05/15 11:34:04;;;;;;;13.82;3.78;;;20.60;99.90;;;;;;5055720;28;20511;-54
2022/05/15 11:36:37;;;;;;;11.75;2.90;;;20.70;99.10;;;;;;5056128;28;20101;-54
2022/05/15 11:39:02;;;;;;;9.93;2.60;;;20.70;99.00;;;;;;5056919;28;20052;-54
2022/05/15 11:41:34;;;;;;;11.05;3.05;;;20.80;99.80;;;;;;5056657;28;20045;-55
2022/05/15 11:44:13;;;;;;;9.88;2.72;;;20.80;98.70;;;;;;5057291;28;20053;-54
2022/05/15 11:46:44;;;;;;;11.15;3.38;;;21.10;99.00;;;;;;5055643;28;20056;-54
2022/05/15 11:49:37;;;;;;;11.25;2.65;;;20.90;97.00;;;;;;5057159;28;20049;-55
2022/05/15 11:52:03;;;;;;;11.40;2.47;;;20.90;97.80;;;;;;5049187;28;20056;-53
2022/05/15 11:54:41;;;;;;;12.98;3.20;;;20.90;98.70;;;;;;5055961;28;20041;-55
2022/05/15 11:57:10;;;;;;;10.23;2.60;;;21.00;97.20;;;;;;5056519;28;20037;-55
2022/05/15 11:59:54;;;;;;;11.88;2.75;;;20.80;97.10;;;;;;5054757;28;20037;-54
2022/05/15 12:02:28;;;;;;;14.55;3.15;;;20.70;97.50;;;;;;5056837;28;20052;-54
2022/05/15 12:05:28;;;;;;;12.55;2.70;;;20.70;98.00;;;;;;5039359;28;20057;-54
2022/05/15 12:08:07;;;;;;;9.32;2.72;;;20.80;97.40;;;;;;5038037;28;20052;-55
2022/05/15 12:10:33;;;;;;;12.73;2.50;;;20.90;97.40;;;;;;5039212;28;20072;-55
2022/05/15 12:13:04;;;;;;;11.43;3.05;;;21.00;96.90;;;;;;5056263;28;20049;-55
2022/05/15 12:15:46;;;;;;;12.65;2.63;;;21.20;96.00;;;;;;5056743;28;20057;-55
2022/05/15 12:18:32;;;;;;;10.52;2.30;;;21.30;95.60;;;;;;5056555;28;20048;-55
2022/05/15 12:20:59;;;;;;;10.25;2.38;;;21.20;95.20;;;;;;5055729;28;20077;-55
2022/05/15 12:23:33;;;;;;;9.80;2.50;;;21.30;95.60;;;;;;5056694;28;20044;-55
2022/05/15 12:26:00;;;;;;;10.35;2.40;;;21.20;95.10;;;;;;5056219;28;20511;-55
2022/05/15 12:28:51;;;;;;;12.57;3.63;;;21.30;96.00;;;;;;5056052;28;20041;-55
2022/05/15 12:31:22;;;;;;;9.32;2.38;;;21.20;94.80;;;;;;5055732;28;20088;-55
2022/05/15 12:33:49;;;;;;;8.07;2.40;;;21.30;95.10;;;;;;5055329;28;20041;-54
2022/05/15 12:36:37;;;;;;;9.65;2.40;;;21.30;94.90;;;;;;5056964;28;20518;-55
2022/05/15 12:39:04;;;;;;;10.75;2.55;;;21.40;93.60;;;;;;5056187;28;20052;-54
2022/05/15 12:41:38;;;;;;;8.88;2.70;;;21.50;94.60;;;;;;5055846;28;20493;-54
2022/05/15 12:44:06;;;;;;;7.07;1.90;;;21.60;93.70;;;;;;5056463;28;20127;-55
2022/05/15 12:46:56;;;;;;;10.85;2.97;;;21.80;94.40;;;;;;5055180;28;20727;-55
2022/05/15 12:49:56;;;;;;;9.85;2.20;;;21.80;93.30;;;;;;5048272;28;20068;-55
2022/05/15 12:52:30;;;;;;;8.80;2.28;;;21.80;92.80;;;;;;5056266;28;20053;-54
2022/05/15 12:55:07;;;;;;;8.15;2.20;;;21.60;92.80;;;;;;5055102;28;20087;-54
2022/05/15 12:57:44;;;;;;;9.40;2.30;;;21.40;92.80;;;;;;5056214;28;20045;-54
2022/05/15 13:00:15;;;;;;;10.30;2.72;;;21.50;93.80;;;;;;5055521;28;20049;-54
2022/05/15 13:02:41;;;;;;;11.13;3.03;;;21.60;93.40;;;;;;5055593;28;20104;-54
2022/05/15 13:05:32;;;;;;;12.02;3.25;;;21.60;93.90;;;;;;5055851;28;20172;-53
2022/05/15 13:08:01;;;;;;;10.35;2.80;;;21.50;93.20;;;;;;5046252;28;20068;-55
2022/05/15 13:10:28;;;;;;;12.32;3.20;;;21.50;93.80;;;;;;5057993;28;20218;-54
2022/05/15 13:13:24;;;;;;;9.93;2.20;;;21.60;94.10;;;;;;5058362;28;20370;-55
2022/05/15 13:15:53;;;;;;;10.52;2.40;;;21.60;93.00;;;;;;5052991;28;20064;-54
2022/05/15 13:18:21;;;;;;;9.25;2.25;;;21.50;93.80;;;;;;5058776;28;20040;-54
2022/05/15 13:20:56;;;;;;;8.70;2.28;;;21.60;93.50;;;;;;5057616;28;20037;-54
2022/05/15 13:23:28;;;;;;;11.38;2.72;;;21.60;93.40;;;;;;5059073;28;20045;-54
2022/05/15 13:25:55;;;;;;;10.43;2.65;;;21.60;93.30;;;;;;5058201;28;20041;-54